This is the latest recevied weather packets stored in our database for station/object W7TRD. If no packets are shown the sender has not sent any weather packets the latest 10 day(s).
| Time | Temp. | Humidity | Pressure | Rain* | Wind** | Luminosity | Snow |
|---|---|---|---|---|---|---|---|
| 1777753723 | 18.89° C | 69% | 1015.4 hPa | 0 mm | - | 792 W/m² | - |
| 1777753421 | 18.89° C | 67% | 1015.5 hPa | 0 mm | - | 459 W/m² | - |
| 1777753119 | 18.33° C | 68% | 1015.3 hPa | 0 mm | - | 653 W/m² | - |
| 1777752815 | 17.22° C | 71% | 1015.4 hPa | 0 mm | - | 645 W/m² | - |
| 1777752511 | 17.78° C | 69% | 1015.5 hPa | 0 mm | - | 246 W/m² | - |
| 1777752207 | 17.78° C | 69% | 1015.7 hPa | 0 mm | - | 288 W/m² | - |
| 1777751905 | 17.78° C | 69% | 1015.4 hPa | 0 mm | - | 276 W/m² | - |
| 1777751601 | 17.78° C | 69% | 1015.8 hPa | 0 mm | - | 860 W/m² | - |
| 1777751298 | 18.33° C | 67% | 1015.9 hPa | 0 mm | - | 891 W/m² | - |
| 1777750995 | 17.22° C | 70% | 1015.9 hPa | 0 mm | - | 839 W/m² | - |
| 1777750691 | 17.78° C | 70% | 1015.6 hPa | 0 mm | - | 769 W/m² | - |
| 1777750388 | 17.22° C | 71% | 1016 hPa | 0 mm | - | 789 W/m² | - |
| 1777750084 | 17.22° C | 72% | 1016.1 hPa | 0 mm | - | 630 W/m² | - |
| 1777749781 | 17.78° C | 68% | 1016 hPa | 0 mm | - | 776 W/m² | - |
| 1777749478 | 17.22° C | 68% | 1016.3 hPa | 0 mm | - | 830 W/m² | - |
| 1777749176 | 16.67° C | 71% | 1016.1 hPa | 0 mm | - | 571 W/m² | - |
| 1777748873 | 17.22° C | 70% | 1016.2 hPa | 0 mm | - | 483 W/m² | - |
| 1777748570 | 16.67° C | 71% | 1016.2 hPa | 0 mm | - | 409 W/m² | - |
| 1777748270 | 16.67° C | 71% | 1016.2 hPa | 0 mm | - | 419 W/m² | - |
| 1777747967 | 16.11° C | 71% | 1016.1 hPa | 0 mm | - | 943 W/m² | - |
| 1777747664 | 15.56° C | 74% | 1016.3 hPa | 0 mm | - | 639 W/m² | - |
| 1777747359 | 16.11° C | 73% | 1016.4 hPa | 0 mm | - | 405 W/m² | - |
| 1777747056 | 15.56° C | 72% | 1016.4 hPa | 0 mm | - | 415 W/m² | - |
| 1777746752 | 15.56° C | 75% | 1016.4 hPa | 0 mm | - | 464 W/m² | - |
| 1777746448 | 15° C | 74% | 1016.4 hPa | 0 mm | - | 365 W/m² | - |
* Rain latest hour (hover to see other rain measurements)
** Current wind speed in m/s (hover to see current wind gust speed)